Huntsburg, Ohio
Current Conditions -  °F | °C
As of 2:45 PM on Friday 31 Oct 2014 (Local Time) from KCGF Reporting Station
Overcast Overcast  
Wind Chill: 50°   Ceiling: 3500
Heat Index: 50°   Visibility: 10mi
Dew Point: 37°   Wind: 7mph
Humidity: 62%   Direction: 230°SW
Pressure: 29.86"   Gusts: NA
Location:  41.53°N, 81.05°W
Report Text: KCGF 311845Z 23006KT 10SM OVC035 10/03 A2986
Loading
Personal Weather Stations






























Interactive Weather Map
Tropical Storm Tracking
New forecast layout! Learn more

10-Day Weather Forecast

Advertisements
Track Severe Weather on mobile